createdAt,value
2023-02-12T00:01:22.431Z,7.20
2023-02-12T00:03:49.144Z,6.47
2023-02-12T00:06:16.251Z,6.33
2023-02-12T00:08:43.206Z,5.60
2023-02-12T00:11:16.325Z,6.57
2023-02-12T00:13:43.728Z,6.17
2023-02-12T00:16:17.869Z,7.00
2023-02-12T00:18:44.859Z,6.63
2023-02-12T00:21:13.236Z,6.63
2023-02-12T00:23:42.891Z,6.43
2023-02-12T00:26:19.110Z,6.87
2023-02-12T00:28:45.780Z,6.40
2023-02-12T00:31:20.142Z,6.37
2023-02-12T00:33:46.779Z,6.27
2023-02-12T00:36:23.665Z,7.40
2023-02-12T00:38:53.450Z,6.77
2023-02-12T00:41:21.732Z,6.63
2023-02-12T00:43:48.905Z,12.57
2023-02-12T00:46:16.057Z,13.13
2023-02-12T00:48:42.838Z,12.70
2023-02-12T00:51:09.410Z,9.43
2023-02-12T00:53:36.784Z,7.20
2023-02-12T00:56:03.896Z,8.43
2023-02-12T00:58:30.388Z,11.90
2023-02-12T01:00:56.848Z,12.97
2023-02-12T01:03:23.871Z,14.83
2023-02-12T01:05:51.219Z,14.87
2023-02-12T01:08:17.753Z,15.57
2023-02-12T01:10:44.722Z,18.13
2023-02-12T01:13:14.360Z,17.43
2023-02-12T01:15:41.993Z,14.97
2023-02-12T01:18:08.548Z,15.03
2023-02-12T01:20:35.054Z,14.63
2023-02-12T01:23:01.520Z,12.97
2023-02-12T01:25:28.051Z,12.60
2023-02-12T01:27:54.695Z,11.77
2023-02-12T01:30:23.403Z,12.23
2023-02-12T01:32:49.892Z,11.67
2023-02-12T01:35:16.530Z,10.13
2023-02-12T01:37:43.317Z,8.40
2023-02-12T01:40:14.108Z,8.13
2023-02-12T01:42:40.560Z,8.00
2023-02-12T01:46:28.807Z,10.73
2023-02-12T01:48:55.494Z,7.60
2023-02-12T01:51:23.722Z,6.67
2023-02-12T01:53:58.559Z,7.23
2023-02-12T01:56:25.402Z,8.33
2023-02-12T01:58:54.885Z,7.40
2023-02-12T02:01:31.689Z,7.87
2023-02-12T02:04:10.915Z,9.10
2023-02-12T02:08:34.288Z,10.83
2023-02-12T02:11:00.816Z,13.07
2023-02-12T02:13:45.876Z,14.00
2023-02-12T02:16:25.820Z,11.17
2023-02-12T02:22:06.730Z,8.23
2023-02-12T02:27:27.414Z,9.07
2023-02-12T02:30:33.891Z,8.63
2023-02-12T02:34:11.615Z,8.90
2023-02-12T02:37:00.732Z,10.33
2023-02-12T02:41:10.444Z,10.47
2023-02-12T02:43:47.726Z,11.63
2023-02-12T02:46:49.679Z,13.33
2023-02-12T02:49:32.206Z,10.73
2023-02-12T02:52:10.865Z,8.87
2023-02-12T02:54:48.019Z,8.97
2023-02-12T02:57:44.862Z,8.77
2023-02-12T03:01:55.758Z,10.23
2023-02-12T03:04:32.406Z,9.53
2023-02-12T03:07:19.676Z,9.63
2023-02-12T03:10:55.047Z,9.00
2023-02-12T03:13:36.909Z,12.13
2023-02-12T03:16:15.392Z,11.10
2023-02-12T03:18:56.595Z,11.17
2023-02-12T03:21:40.160Z,10.13
2023-02-12T03:24:38.231Z,10.67
2023-02-12T03:27:15.746Z,11.63
2023-02-12T03:29:42.291Z,12.27
2023-02-12T03:34:03.657Z,13.10
2023-02-12T03:37:36.365Z,10.13
2023-02-12T03:40:23.301Z,8.00
2023-02-12T03:43:29.134Z,8.97
2023-02-12T03:46:20.013Z,9.80
2023-02-12T03:49:21.196Z,9.47
2023-02-12T03:51:47.713Z,8.93
2023-02-12T03:54:19.337Z,7.60
2023-02-12T03:57:05.734Z,8.30
2023-02-12T03:59:35.807Z,8.40
2023-02-12T04:02:02.865Z,9.07
2023-02-12T04:04:31.048Z,8.87
2023-02-12T04:06:58.165Z,7.97
2023-02-12T04:09:27.174Z,8.07
2023-02-12T04:12:40.416Z,8.27
2023-02-12T04:15:31.477Z,8.30
2023-02-12T04:18:26.328Z,8.83
2023-02-12T04:21:17.902Z,10.17
2023-02-12T04:25:38.669Z,11.03
2023-02-12T04:29:52.907Z,11.77
2023-02-12T04:32:57.476Z,9.13
2023-02-12T04:35:38.328Z,10.03
2023-02-12T04:38:26.350Z,10.57
2023-02-12T04:40:53.280Z,10.07
2023-02-12T04:43:36.317Z,9.40
2023-02-12T04:46:06.472Z,10.03
2023-02-12T04:48:34.049Z,11.37
2023-02-12T04:51:01.410Z,10.57
2023-02-12T04:53:28.181Z,11.17
2023-02-12T04:55:54.949Z,10.10
2023-02-12T04:58:21.570Z,9.07
2023-02-12T05:00:48.030Z,10.10
2023-02-12T05:03:14.522Z,9.50
2023-02-12T05:05:40.994Z,10.13
2023-02-12T05:08:07.492Z,7.27
2023-02-12T05:10:33.973Z,7.77
2023-02-12T05:13:00.441Z,6.97
2023-02-12T05:15:27.040Z,8.73
2023-02-12T05:17:53.602Z,8.37
2023-02-12T05:20:20.158Z,8.47
2023-02-12T05:22:51.325Z,7.83
2023-02-12T05:25:17.781Z,8.30
2023-02-12T05:27:44.269Z,9.03
2023-02-12T05:30:11.532Z,8.63
2023-02-12T05:32:38.036Z,7.20
2023-02-12T05:35:05.304Z,7.63
2023-02-12T05:37:35.530Z,8.83
2023-02-12T05:40:05.669Z,8.47
2023-02-12T05:42:32.235Z,7.70
2023-02-12T05:44:58.724Z,9.53
2023-02-12T05:47:25.188Z,9.00
2023-02-12T05:49:51.797Z,8.87
2023-02-12T05:52:18.297Z,9.73
2023-02-12T05:54:44.763Z,9.20
2023-02-12T05:57:11.211Z,9.70
2023-02-12T05:59:37.688Z,9.13
2023-02-12T06:02:04.166Z,10.37
2023-02-12T06:04:30.652Z,7.70
2023-02-12T06:06:57.415Z,7.70
2023-02-12T06:09:24.253Z,7.70
2023-02-12T06:11:51.240Z,7.37
2023-02-12T06:14:19.862Z,6.67
2023-02-12T06:16:49.649Z,6.70
2023-02-12T06:19:16.974Z,6.90
2023-02-12T06:21:44.095Z,6.77
2023-02-12T06:24:15.616Z,6.60
2023-02-12T06:26:42.599Z,6.33
2023-02-12T06:29:09.101Z,6.60
2023-02-12T06:31:37.147Z,6.77
2023-02-12T06:34:08.749Z,7.17
2023-02-12T06:36:39.307Z,7.20
2023-02-12T06:39:06.621Z,6.93
2023-02-12T06:41:33.321Z,6.80
2023-02-12T06:43:59.992Z,7.10
2023-02-12T06:46:26.649Z,7.47
2023-02-12T06:48:55.962Z,7.87
2023-02-12T06:51:23.427Z,7.33
2023-02-12T06:53:52.851Z,8.27
2023-02-12T06:56:22.012Z,8.47
2023-02-12T06:58:56.247Z,7.80
2023-02-12T07:01:28.782Z,8.37
2023-02-12T07:03:59.336Z,8.63
2023-02-12T07:06:27.299Z,10.43
2023-02-12T07:08:55.076Z,11.20
2023-02-12T07:11:31.180Z,12.00
2023-02-12T07:13:58.237Z,8.27
2023-02-12T07:16:27.667Z,8.77
2023-02-12T07:18:54.631Z,9.27
2023-02-12T07:21:21.257Z,10.03
2023-02-12T07:23:51.527Z,10.43
2023-02-12T07:26:20.715Z,10.63
2023-02-12T07:28:47.840Z,12.43
2023-02-12T07:31:23.038Z,13.33
2023-02-12T07:33:54.624Z,13.10
2023-02-12T07:36:21.831Z,14.90
2023-02-12T07:38:48.477Z,16.53
2023-02-12T07:41:22.888Z,15.33
2023-02-12T07:43:55.456Z,14.23
2023-02-12T07:46:29.855Z,15.17
2023-02-12T07:48:58.741Z,13.50
2023-02-12T07:51:26.949Z,13.13
2023-02-12T07:53:54.043Z,12.93
2023-02-12T07:56:30.111Z,14.07
2023-02-12T07:58:58.194Z,15.00
2023-02-12T08:01:33.371Z,14.83
2023-02-12T08:04:22.460Z,14.30
2023-02-12T08:06:53.197Z,13.60
2023-02-12T08:09:24.855Z,12.90
2023-02-12T08:11:51.700Z,14.07
2023-02-12T08:14:21.057Z,13.30
2023-02-12T08:16:49.673Z,17.13
2023-02-12T08:19:21.683Z,14.90
2023-02-12T08:21:56.739Z,12.33
2023-02-12T08:24:24.588Z,13.47
2023-02-12T08:26:51.684Z,13.53
2023-02-12T08:29:26.007Z,17.30
2023-02-12T08:32:00.893Z,18.27
2023-02-12T08:34:31.824Z,18.90
2023-02-12T08:36:58.877Z,15.97
2023-02-12T08:39:28.410Z,15.23
2023-02-12T08:41:56.923Z,15.23
2023-02-12T08:44:24.376Z,15.90
2023-02-12T08:46:54.812Z,13.00
2023-02-12T08:49:25.630Z,12.03
2023-02-12T08:51:55.925Z,12.23
2023-02-12T08:54:25.988Z,12.20
2023-02-12T08:56:57.823Z,11.93
2023-02-12T08:59:24.302Z,11.23
2023-02-12T09:01:52.685Z,10.53
2023-02-12T09:04:22.995Z,8.60
2023-02-12T09:06:50.670Z,8.90
2023-02-12T09:09:18.844Z,8.70
2023-02-12T09:11:45.385Z,8.47
2023-02-12T09:14:15.472Z,7.20
2023-02-12T09:16:42.941Z,7.53
2023-02-12T09:19:13.087Z,8.10
2023-02-12T09:21:39.849Z,7.60
2023-02-12T09:24:06.542Z,7.43
2023-02-12T09:26:33.039Z,8.10
2023-02-12T09:29:03.450Z,7.73
2023-02-12T09:31:32.065Z,7.00
2023-02-12T09:34:05.548Z,6.60
2023-02-12T09:36:33.747Z,5.90
2023-02-12T09:39:00.283Z,6.83
2023-02-12T09:45:32.278Z,7.07
2023-02-12T09:50:59.754Z,6.73
2023-02-12T09:53:31.729Z,5.87
2023-02-12T09:55:59.249Z,5.83
2023-02-12T09:58:50.352Z,6.30
2023-02-12T10:01:22.215Z,5.83
2023-02-12T10:03:51.557Z,5.33
2023-02-12T10:06:30.066Z,6.07
2023-02-12T10:12:15.012Z,5.87
2023-02-12T10:15:14.207Z,5.67
2023-02-12T10:19:36.808Z,6.23
2023-02-12T10:22:55.840Z,5.90
2023-02-12T10:27:20.291Z,6.10
2023-02-12T10:29:49.069Z,6.60
2023-02-12T10:32:32.734Z,5.73
2023-02-12T10:34:59.927Z,4.83
2023-02-12T10:37:56.886Z,4.27
2023-02-12T10:40:29.274Z,2.87
2023-02-12T10:42:57.596Z,2.53
2023-02-12T10:45:39.018Z,2.97
2023-02-12T10:48:21.480Z,2.70
2023-02-12T10:52:44.404Z,2.30
2023-02-12T10:55:30.492Z,2.50
2023-02-12T10:57:59.553Z,3.13
2023-02-12T11:00:38.322Z,3.20
2023-02-12T11:03:33.591Z,3.10
2023-02-12T11:06:16.900Z,3.10
2023-02-12T11:08:44.682Z,2.57
2023-02-12T11:11:18.792Z,2.47
2023-02-12T11:13:59.260Z,2.57
2023-02-12T11:16:44.714Z,2.57
2023-02-12T11:19:29.389Z,2.53
2023-02-12T11:22:13.764Z,2.03
2023-02-12T11:24:40.335Z,1.80
2023-02-12T11:29:48.720Z,2.23
2023-02-12T11:32:19.025Z,1.80
2023-02-12T11:35:27.609Z,1.70
2023-02-12T11:37:57.929Z,1.77
2023-02-12T11:40:33.632Z,1.63
2023-02-12T11:43:14.069Z,1.70
2023-02-12T11:46:01.425Z,1.50
2023-02-12T11:48:46.949Z,1.70
2023-02-12T11:51:24.453Z,1.60
2023-02-12T11:53:55.635Z,1.73
2023-02-12T11:56:22.352Z,1.40
2023-02-12T11:58:50.949Z,1.83
2023-02-12T12:01:38.594Z,1.40
2023-02-12T12:04:14.686Z,1.80
2023-02-12T12:06:54.013Z,1.30
2023-02-12T12:09:49.598Z,1.00
2023-02-12T12:12:37.000Z,1.00
2023-02-12T12:15:43.935Z,1.00
2023-02-12T12:19:51.925Z,0.97
2023-02-12T12:23:12.483Z,0.50
2023-02-12T12:26:03.817Z,0.50
2023-02-12T12:28:51.732Z,0.70
2023-02-12T12:32:02.752Z,0.60
2023-02-12T12:34:29.488Z,0.53
2023-02-12T12:37:57.312Z,0.40
2023-02-12T12:41:19.652Z,0.70
2023-02-12T12:44:42.401Z,0.50
2023-02-12T12:49:58.875Z,0.60
2023-02-12T12:53:18.080Z,0.30
2023-02-12T12:56:48.740Z,0.50
2023-02-12T13:01:35.533Z,0.40
2023-02-12T13:07:48.285Z,0.60
2023-02-12T13:10:55.620Z,0.40
2023-02-12T13:14:12.862Z,0.40
2023-02-12T13:16:48.948Z,0.50
2023-02-12T13:20:55.655Z,0.40
2023-02-12T13:24:16.765Z,0.43
2023-02-12T13:26:57.031Z,0.50
2023-02-12T13:29:36.517Z,0.33
2023-02-12T13:32:21.688Z,0.50
2023-02-12T13:34:50.051Z,0.47
2023-02-12T13:37:45.855Z,0.50
2023-02-12T13:40:22.614Z,0.40
2023-02-12T13:46:14.600Z,0.50
2023-02-12T13:50:34.033Z,0.50
2023-02-12T13:54:59.284Z,0.50
2023-02-12T13:57:25.760Z,0.30
2023-02-12T13:59:54.570Z,0.43
2023-02-12T14:02:54.656Z,0.50
2023-02-12T14:05:29.276Z,0.90
2023-02-12T14:08:05.509Z,0.80
2023-02-12T14:10:41.730Z,0.30
2023-02-12T14:16:18.520Z,0.50
2023-02-12T14:18:45.018Z,0.40
2023-02-12T14:21:56.844Z,0.40
2023-02-12T14:24:53.303Z,1.20
2023-02-12T14:27:54.042Z,1.40
2023-02-12T14:30:41.787Z,1.40
2023-02-12T14:33:24.383Z,1.70
2023-02-12T14:36:48.303Z,1.53
2023-02-12T14:39:47.823Z,1.53
2023-02-12T14:42:43.171Z,1.57
2023-02-12T14:45:35.272Z,1.37
2023-02-12T14:48:04.486Z,1.70
2023-02-12T14:50:49.693Z,1.33
2023-02-12T14:53:38.587Z,1.30
2023-02-12T14:56:08.620Z,1.60
2023-02-12T14:58:36.838Z,1.40
2023-02-12T15:01:05.797Z,1.60
2023-02-12T15:03:50.318Z,1.33
2023-02-12T15:06:27.406Z,1.00
2023-02-12T15:09:02.353Z,1.30
2023-02-12T15:11:46.790Z,2.10
2023-02-12T15:14:30.272Z,1.70
2023-02-12T15:17:34.249Z,1.50
2023-02-12T15:20:37.677Z,1.77
2023-02-12T15:23:44.840Z,1.37
2023-02-12T15:26:30.958Z,1.30
2023-02-12T15:28:57.562Z,1.10
2023-02-12T15:31:29.607Z,1.00
2023-02-12T15:34:00.573Z,1.07
2023-02-12T15:36:32.598Z,0.80
2023-02-12T15:39:08.387Z,0.93
2023-02-12T15:41:39.642Z,0.70
2023-02-12T15:45:58.342Z,0.80
2023-02-12T15:48:32.465Z,0.80
2023-02-12T15:51:25.107Z,1.07
2023-02-12T15:53:52.240Z,1.60
2023-02-12T15:56:24.114Z,1.60
2023-02-12T15:58:57.240Z,1.40
2023-02-12T16:01:27.237Z,1.67
2023-02-12T16:04:00.902Z,1.47
2023-02-12T16:06:31.996Z,1.53
2023-02-12T16:09:07.568Z,1.67
2023-02-12T16:11:36.123Z,1.37
2023-02-12T16:14:18.355Z,1.77
2023-02-12T16:16:52.123Z,1.50
2023-02-12T16:19:39.456Z,2.10
2023-02-12T16:22:14.308Z,8.17
2023-02-12T16:24:49.548Z,8.67
2023-02-12T16:27:23.561Z,11.13
2023-02-12T16:30:00.885Z,12.73
2023-02-12T16:32:40.964Z,12.17
2023-02-12T16:35:32.378Z,13.77
2023-02-12T16:38:47.768Z,12.50
2023-02-12T16:41:29.913Z,10.17
2023-02-12T16:44:32.275Z,9.50
2023-02-12T16:47:01.215Z,11.37
2023-02-12T16:49:27.736Z,11.83
2023-02-12T16:52:30.657Z,10.77
2023-02-12T16:54:57.133Z,10.10
2023-02-12T16:57:23.626Z,10.37
2023-02-12T16:59:50.104Z,8.33
2023-02-12T17:02:16.575Z,8.77
2023-02-12T17:04:43.094Z,8.63
2023-02-12T17:07:22.605Z,7.80
2023-02-12T17:09:49.151Z,7.73
2023-02-12T17:12:16.538Z,8.17
2023-02-12T17:14:42.982Z,7.87
2023-02-12T17:17:09.582Z,7.13
2023-02-12T17:19:36.194Z,7.77
2023-02-12T17:22:05.151Z,7.43
2023-02-12T17:24:35.858Z,5.73
2023-02-12T17:27:02.749Z,6.37
2023-02-12T17:29:29.941Z,8.33
2023-02-12T17:31:57.199Z,7.10
2023-02-12T17:34:24.761Z,6.20
2023-02-12T17:36:51.972Z,6.70
2023-02-12T17:39:19.521Z,6.33
2023-02-12T17:41:46.839Z,5.33
2023-02-12T17:44:14.705Z,6.70
2023-02-12T17:46:41.989Z,6.83
2023-02-12T17:49:08.495Z,6.90
2023-02-12T17:51:34.976Z,5.60
2023-02-12T17:54:01.656Z,5.90
2023-02-12T17:56:28.152Z,7.20
2023-02-12T17:58:54.694Z,7.30
2023-02-12T18:01:23.125Z,5.80
2023-02-12T18:03:50.810Z,6.13
2023-02-12T18:06:27.657Z,5.30
2023-02-12T18:08:56.444Z,5.77
2023-02-12T18:11:23.312Z,5.03
2023-02-12T18:13:55.032Z,5.60
2023-02-12T18:16:23.999Z,5.20
2023-02-12T18:18:50.765Z,5.07
2023-02-12T18:21:17.480Z,5.10
2023-02-12T18:23:44.439Z,5.10
2023-02-12T18:26:14.525Z,5.80
2023-02-12T18:28:41.813Z,5.13
2023-02-12T18:31:09.823Z,5.73
2023-02-12T18:33:37.617Z,4.83
2023-02-12T18:36:16.272Z,4.87
2023-02-12T18:38:46.365Z,5.20
2023-02-12T18:41:23.539Z,4.87
2023-02-12T18:43:50.649Z,4.67
2023-02-12T18:46:21.420Z,4.77
2023-02-12T18:48:48.518Z,5.00
2023-02-12T18:51:20.277Z,5.37
2023-02-12T18:53:46.986Z,5.33
2023-02-12T18:56:13.712Z,5.07
2023-02-12T18:58:40.262Z,4.73
2023-02-12T19:01:18.978Z,5.00
2023-02-12T19:03:50.172Z,5.27
2023-02-12T19:06:16.669Z,4.40
2023-02-12T19:08:43.127Z,4.60
2023-02-12T19:11:11.337Z,4.13
2023-02-12T19:13:38.483Z,4.83
2023-02-12T19:16:12.849Z,3.60
2023-02-12T19:18:39.970Z,4.13
2023-02-12T19:21:13.245Z,4.47
2023-02-12T19:23:39.971Z,4.93
2023-02-12T19:26:12.027Z,4.23
2023-02-12T19:28:39.308Z,4.60
2023-02-12T19:31:29.330Z,4.77
2023-02-12T19:34:15.225Z,4.50
2023-02-12T19:36:43.582Z,5.30
2023-02-12T19:39:13.996Z,5.07
2023-02-12T19:41:41.251Z,5.53
2023-02-12T19:44:17.929Z,6.83
2023-02-12T19:46:46.166Z,5.37
2023-02-12T19:49:20.432Z,5.23
2023-02-12T19:51:48.268Z,5.90
2023-02-12T19:54:17.269Z,5.63
2023-02-12T19:56:44.531Z,5.60
2023-02-12T19:59:16.570Z,5.27
2023-02-12T20:01:43.927Z,4.87
2023-02-12T20:04:16.802Z,5.00
2023-02-12T20:06:45.153Z,5.43
2023-02-12T20:09:13.399Z,5.00
2023-02-12T20:11:40.338Z,5.80
2023-02-12T20:14:10.277Z,5.17
2023-02-12T20:16:38.440Z,5.97
2023-02-12T20:19:16.242Z,5.50
2023-02-12T20:21:43.190Z,6.27
2023-02-12T20:24:09.887Z,5.00
2023-02-12T20:26:37.215Z,5.07
2023-02-12T20:29:05.376Z,5.57
2023-02-12T20:31:35.216Z,6.23
2023-02-12T20:34:06.152Z,5.90
2023-02-12T20:36:36.188Z,5.43
2023-02-12T20:39:06.319Z,4.40
2023-02-12T20:41:36.208Z,5.37
2023-02-12T20:44:05.854Z,5.43
2023-02-12T20:46:32.451Z,5.00
2023-02-12T20:48:58.924Z,5.63
2023-02-12T20:51:27.734Z,5.73
2023-02-12T20:53:54.940Z,5.80
2023-02-12T20:56:27.443Z,5.63
2023-02-12T20:58:54.661Z,5.67
2023-02-12T21:01:33.739Z,5.80
2023-02-12T21:04:09.935Z,5.43
2023-02-12T21:06:39.302Z,6.30
2023-02-12T21:09:08.991Z,6.13
2023-02-12T21:11:36.798Z,5.70
2023-02-12T21:14:20.811Z,5.87
2023-02-12T21:16:48.201Z,5.93
2023-02-12T21:19:14.653Z,5.73
2023-02-12T21:21:46.152Z,5.60
2023-02-12T21:24:17.396Z,5.33
2023-02-12T21:26:44.041Z,5.60
2023-02-12T21:29:10.761Z,6.43
2023-02-12T21:31:41.532Z,6.43
2023-02-12T21:34:12.889Z,6.03
2023-02-12T21:36:41.733Z,5.73
2023-02-12T21:39:13.527Z,6.10
2023-02-12T21:41:41.960Z,5.87
2023-02-12T21:44:16.499Z,6.03
2023-02-12T21:46:43.707Z,6.13
2023-02-12T21:49:13.237Z,6.03
2023-02-12T21:51:44.526Z,5.30
2023-02-12T21:54:15.080Z,5.93
2023-02-12T21:56:44.596Z,5.27
2023-02-12T21:59:12.271Z,5.77
2023-02-12T22:01:49.813Z,5.17
2023-02-12T22:04:17.872Z,5.90
2023-02-12T22:06:50.005Z,5.50
2023-02-12T22:09:20.615Z,5.73
2023-02-12T22:11:47.195Z,5.27
2023-02-12T22:14:16.971Z,6.37
2023-02-12T22:16:44.241Z,6.57
2023-02-12T22:19:10.806Z,5.17
2023-02-12T22:21:40.434Z,5.83
2023-02-12T22:24:11.977Z,5.47
2023-02-12T22:26:38.491Z,5.80
2023-02-12T22:29:09.785Z,6.03
2023-02-12T22:31:40.132Z,6.10
2023-02-12T22:34:12.735Z,6.50
2023-02-12T22:36:40.693Z,5.07
2023-02-12T22:39:07.862Z,5.30
2023-02-12T22:41:34.354Z,5.20
2023-02-12T22:44:04.365Z,5.57
2023-02-12T22:46:31.487Z,4.37
2023-02-12T22:48:57.958Z,5.03
2023-02-12T22:51:30.413Z,5.33
2023-02-12T22:53:56.908Z,5.37
2023-02-12T22:56:24.467Z,5.23
2023-02-12T22:59:00.423Z,5.23
2023-02-12T23:01:29.085Z,5.50
2023-02-12T23:03:55.996Z,4.77
2023-02-12T23:06:26.986Z,5.30
2023-02-12T23:08:58.137Z,4.97
2023-02-12T23:11:27.498Z,5.77
2023-02-12T23:13:54.759Z,5.77
2023-02-12T23:16:21.708Z,5.20
2023-02-12T23:18:48.225Z,4.60
2023-02-12T23:21:14.797Z,4.77
2023-02-12T23:23:41.268Z,6.10
2023-02-12T23:26:07.745Z,5.40
2023-02-12T23:28:34.269Z,4.77
2023-02-12T23:31:01.398Z,4.97
2023-02-12T23:33:28.121Z,4.57
2023-02-12T23:35:54.576Z,4.17
2023-02-12T23:38:21.040Z,4.37
2023-02-12T23:40:47.938Z,4.13
2023-02-12T23:43:14.485Z,5.13
2023-02-12T23:45:43.881Z,4.90
2023-02-12T23:48:11.108Z,5.60
2023-02-12T23:50:37.892Z,4.83
2023-02-12T23:53:04.530Z,4.50
2023-02-12T23:55:30.983Z,4.93
2023-02-12T23:57:57.468Z,4.30
